Cochranton, PA (16314)

Sagat: 10:09 PM EDT Sene: Mart 23, 2017 (GMT -0400)
Cochranton PA | | Change Station

Elev 1056 ft 41.52 °N, 80.05 °W | Updated 9 seconds ago

Parçaly Bulutly
Parçaly Bulutly
31.1 ° F
Feels Like 31 ° F
N
0.0
Ýel Üýtgäp Durýan Ýel from DG
Gusts 0.0 mps

Su Gün
High -- | Low -- ° F
--% Chance of Precip.
Yesterday
High -- | Low -- ° F
Precip. -- duým (inlis birl.)
Basys 30.34 duým (inlis birl.)
Görüs Uzaklygy 10.0 mil
Clouds Üýtgäp Durýan Bulutly 12000 ft
Ýelin baglylygy bilen temperatura 31 ° F
Çyglylyk 17 ° F
Ygal 56%
Rainfall 0.00 duým (inlis birl.)
Snow Depth Not available.
7:17 AM 7:35 PM
Waning Crescent, 19% visible
METAR KGKJ 240153Z AUTO VRB05KT 10SM SCT120 05/M16 A3030 RMK AO2 PRESFR SLP273 T00501161
Basys 30.34 duým (inlis birl.)
Görüs Uzaklygy 10.0 mil
Clouds Üýtgäp Durýan Bulutly 12000 ft
Ýelin baglylygy bilen temperatura 31 ° F
Çyglylyk 17 ° F
Ygal 56%
Rainfall 0.00 duým (inlis birl.)
Snow Depth Not available.
7:17 AM 7:35 PM
Waning Crescent, 19% visible
METAR KGKJ 240153Z AUTO VRB05KT 10SM SCT120 05/M16 A3030 RMK AO2 PRESFR SLP273 T00501161

Get Severe Weather Alerts

Thanks for signing up!

Be on the lookout for a verification email in your inbox.

You'll start receiving the daily forecast at 8 AM.

×

10-Day Weather Forecast

Almanac

Astronomy

Mar. 23, 2017 Rise Set
Actual Time
Civil Twilight
Nautical Twilight
Astronomical Twilight
Length Of Visible Light
Length of Day
Tomorrow will be .
, % of the Moon is Illuminated

Today's Extremes

State Highs State Lows

Community

WunderPhotos

Upload Photos

1,962,540 photos uploaded!

WunderBlog® & News

Nearby

Air Quality

  Air Quality AQ Index Pollutant
Not available.

Gar çunlygy

Station Depth Elevation

Earthquake Activity

Säher Distance Mag. Time & Date
Minimum magnitude displayed is 2.5.

Earthquake Activity

Säher Distance Mag. Time & Date
Minimum magnitude displayed is 2.5.

Coastal Water Temperatures

Säheri Temperatura

Stations

Nearby Weather Stations

Station Location Ýagdaý Ýelin baglylygy bilen temperatura Çyglylyk Ygal Ýel Precip. Elev Täzelendi Type
                   

Watches & Warnings

There are currently no watches in effect.